createdAt,value
2022-09-02T00:02:25.497Z,99.90
2022-09-02T00:04:53.031Z,99.90
2022-09-02T00:07:20.592Z,99.90
2022-09-02T00:09:49.128Z,99.90
2022-09-02T00:12:17.022Z,99.90
2022-09-02T00:14:44.614Z,99.90
2022-09-02T00:17:12.957Z,99.90
2022-09-02T00:19:40.561Z,99.90
2022-09-02T00:22:08.134Z,99.90
2022-09-02T00:24:35.708Z,99.90
2022-09-02T00:27:03.292Z,99.90
2022-09-02T00:29:30.858Z,99.90
2022-09-02T00:31:58.497Z,99.90
2022-09-02T00:34:26.813Z,99.90
2022-09-02T00:36:54.396Z,99.90
2022-09-02T00:39:21.980Z,99.90
2022-09-02T00:41:49.624Z,99.90
2022-09-02T00:44:17.188Z,99.90
2022-09-02T00:46:44.773Z,99.90
2022-09-02T00:49:17.912Z,99.90
2022-09-02T00:51:45.474Z,99.90
2022-09-02T00:54:13.817Z,99.90
2022-09-02T00:56:41.488Z,99.90
2022-09-02T00:59:09.065Z,99.90
2022-09-02T01:01:37.542Z,99.90
2022-09-02T01:04:04.992Z,99.90
2022-09-02T01:06:32.577Z,99.90
2022-09-02T01:09:03.617Z,99.90
2022-09-02T01:11:31.988Z,99.90
2022-09-02T01:14:00.331Z,99.90
2022-09-02T01:16:27.985Z,99.90
2022-09-02T01:18:55.866Z,99.90
2022-09-02T01:21:23.439Z,99.90
2022-09-02T01:23:51.012Z,99.90
2022-09-02T01:26:19.384Z,99.90
2022-09-02T01:28:47.757Z,99.90
2022-09-02T01:31:15.388Z,99.90
2022-09-02T01:33:43.443Z,99.90
2022-09-02T01:36:10.488Z,99.90
2022-09-02T01:38:38.072Z,99.90
2022-09-02T01:41:05.656Z,99.90
2022-09-02T01:43:33.998Z,99.90
2022-09-02T01:46:01.583Z,99.90
2022-09-02T01:48:30.156Z,99.90
2022-09-02T01:51:00.188Z,99.90
2022-09-02T01:53:27.731Z,99.90
2022-09-02T01:55:55.346Z,99.90
2022-09-02T01:58:22.933Z,99.90
2022-09-02T02:00:50.574Z,99.90
2022-09-02T02:03:18.127Z,99.90
2022-09-02T02:05:46.449Z,99.90
2022-09-02T02:08:14.043Z,99.90
2022-09-02T02:10:42.419Z,99.90
2022-09-02T02:13:10.776Z,99.90
2022-09-02T02:15:41.343Z,99.90
2022-09-02T02:18:08.957Z,99.90
2022-09-02T02:20:36.522Z,99.90
2022-09-02T02:23:04.105Z,99.90
2022-09-02T02:25:32.496Z,99.90
2022-09-02T02:28:00.101Z,99.90
2022-09-02T02:30:27.646Z,99.90
2022-09-02T02:32:55.229Z,99.90
2022-09-02T02:35:22.806Z,99.90
2022-09-02T02:37:50.377Z,99.90
2022-09-02T02:40:18.782Z,99.90
2022-09-02T02:42:46.324Z,99.90
2022-09-02T02:45:15.113Z,99.90
2022-09-02T02:47:42.272Z,99.90
2022-09-02T02:50:09.951Z,99.90
2022-09-02T02:52:37.538Z,99.90
2022-09-02T02:55:05.198Z,99.90
2022-09-02T02:57:32.821Z,99.90
2022-09-02T03:00:00.380Z,99.90
2022-09-02T03:02:28.139Z,99.90
2022-09-02T03:04:55.553Z,99.90
2022-09-02T03:07:23.138Z,99.90
2022-09-02T03:11:17.633Z,99.90
2022-09-02T03:13:45.996Z,99.90
2022-09-02T03:16:13.626Z,99.90
2022-09-02T03:18:41.194Z,99.90
2022-09-02T03:21:08.767Z,99.90
2022-09-02T03:23:36.341Z,99.90
2022-09-02T03:26:06.436Z,99.90
2022-09-02T03:28:34.020Z,99.90
2022-09-02T03:31:01.672Z,99.90
2022-09-02T03:33:29.207Z,99.90
2022-09-02T03:35:56.772Z,99.90
2022-09-02T03:38:24.346Z,99.90
2022-09-02T03:40:52.049Z,99.90
2022-09-02T03:43:19.656Z,99.90
2022-09-02T03:45:47.989Z,99.90
2022-09-02T03:48:15.573Z,99.90
2022-09-02T03:50:43.142Z,99.90
2022-09-02T03:53:19.452Z,99.90
2022-09-02T03:55:39.216Z,99.90
2022-09-02T03:58:08.670Z,99.90
2022-09-02T04:00:35.132Z,99.90
2022-09-02T04:03:02.754Z,99.90
2022-09-02T04:05:31.068Z,99.90
2022-09-02T04:07:58.653Z,99.90
2022-09-02T04:10:26.248Z,99.90
2022-09-02T04:12:53.830Z,99.90
2022-09-02T04:15:21.414Z,99.90
2022-09-02T04:17:49.008Z,99.90
2022-09-02T04:20:17.362Z,99.90
2022-09-02T04:22:44.934Z,99.90
2022-09-02T04:25:13.305Z,99.90
2022-09-02T04:27:40.889Z,99.90
2022-09-02T04:30:08.552Z,99.90
2022-09-02T04:32:40.488Z,99.90
2022-09-02T04:35:03.733Z,99.90
2022-09-02T04:37:31.306Z,99.90
2022-09-02T04:39:58.909Z,99.90
2022-09-02T04:42:26.790Z,99.90
2022-09-02T04:44:54.372Z,99.90
2022-09-02T04:47:21.965Z,99.90
2022-09-02T04:49:50.305Z,99.90
2022-09-02T04:52:17.890Z,99.90
2022-09-02T04:54:46.460Z,99.90
2022-09-02T04:57:14.033Z,99.90
2022-09-02T04:59:41.612Z,99.90
2022-09-02T05:02:10.398Z,99.90
2022-09-02T05:04:37.908Z,99.90
2022-09-02T05:07:05.492Z,99.90
2022-09-02T05:09:33.107Z,99.90
2022-09-02T05:12:00.677Z,99.90
2022-09-02T05:14:28.253Z,99.90
2022-09-02T05:16:55.857Z,99.90
2022-09-02T05:19:24.199Z,99.90
2022-09-02T05:21:51.784Z,99.90
2022-09-02T05:24:24.495Z,99.90
2022-09-02T05:26:48.497Z,99.90
2022-09-02T05:29:16.076Z,99.90
2022-09-02T05:31:43.698Z,99.90
2022-09-02T05:34:11.269Z,99.90
2022-09-02T05:36:38.893Z,99.90
2022-09-02T05:39:06.822Z,99.90
2022-09-02T05:41:34.385Z,99.90
2022-09-02T05:44:03.615Z,99.90
2022-09-02T05:46:29.639Z,99.90
2022-09-02T05:49:06.494Z,99.90
2022-09-02T05:51:43.281Z,99.90
2022-09-02T05:54:11.657Z,99.90
2022-09-02T05:56:39.207Z,99.90
2022-09-02T05:59:06.821Z,99.90
2022-09-02T06:01:34.423Z,99.90
2022-09-02T06:04:01.984Z,99.90
2022-09-02T06:06:29.587Z,99.90
2022-09-02T06:08:57.152Z,99.90
2022-09-02T06:11:24.727Z,99.90
2022-09-02T06:13:52.369Z,99.90
2022-09-02T06:16:20.022Z,99.90
2022-09-02T06:18:47.529Z,99.90
2022-09-02T06:21:15.142Z,99.90
2022-09-02T06:23:42.718Z,99.90
2022-09-02T06:26:10.299Z,99.90
2022-09-02T06:28:37.942Z,99.90
2022-09-02T06:31:11.184Z,99.90
2022-09-02T06:33:38.701Z,99.90
2022-09-02T06:36:06.326Z,99.90
2022-09-02T06:38:33.909Z,99.90
2022-09-02T06:41:01.484Z,99.90
2022-09-02T06:43:29.107Z,99.90
2022-09-02T06:45:56.770Z,99.90
2022-09-02T06:48:24.264Z,99.90
2022-09-02T06:50:51.878Z,99.90
2022-09-02T06:53:20.267Z,99.90
2022-09-02T06:55:47.814Z,99.90
2022-09-02T06:58:16.185Z,99.90
2022-09-02T07:00:44.527Z,99.90
2022-09-02T07:03:30.100Z,99.90
2022-09-02T07:06:09.510Z,99.90
2022-09-02T07:08:40.233Z,99.90
2022-09-02T07:11:07.808Z,99.90
2022-09-02T07:13:35.382Z,99.90
2022-09-02T07:16:02.987Z,99.90
2022-09-02T07:18:31.348Z,99.70
2022-09-02T07:20:58.912Z,99.80
2022-09-02T07:23:26.515Z,99.20
2022-09-02T07:25:54.099Z,98.80
2022-09-02T07:28:21.664Z,98.50
2022-09-02T07:30:49.310Z,98.00
2022-09-02T07:33:17.713Z,97.20
2022-09-02T07:35:45.193Z,97.20
2022-09-02T07:38:12.807Z,96.70
2022-09-02T07:40:40.445Z,96.30
2022-09-02T07:43:07.975Z,96.00
2022-09-02T07:45:35.619Z,95.70
2022-09-02T07:48:03.154Z,95.10
2022-09-02T07:50:30.739Z,94.80
2022-09-02T07:52:58.383Z,94.20
2022-09-02T07:55:25.954Z,93.90
2022-09-02T07:57:53.518Z,93.00
2022-09-02T08:00:21.122Z,92.20
2022-09-02T08:02:48.812Z,91.70
2022-09-02T08:05:16.296Z,91.30
2022-09-02T08:07:44.264Z,91.00
2022-09-02T08:10:11.829Z,90.90
2022-09-02T08:12:39.413Z,89.70
2022-09-02T08:15:07.844Z,88.10
2022-09-02T08:17:35.418Z,88.10
2022-09-02T08:20:03.004Z,87.20
2022-09-02T08:25:01.084Z,84.20
2022-09-02T08:27:28.688Z,83.10
2022-09-02T08:29:57.059Z,79.00
2022-09-02T08:32:24.643Z,78.90
2022-09-02T08:34:52.219Z,77.10
2022-09-02T08:37:19.821Z,75.70
2022-09-02T08:39:51.058Z,73.40
2022-09-02T08:42:21.773Z,73.20
2022-09-02T08:44:49.397Z,72.50
2022-09-02T08:47:16.960Z,72.20
2022-09-02T08:49:44.544Z,71.20
2022-09-02T08:52:17.180Z,70.10
2022-09-02T08:54:42.410Z,70.10
2022-09-02T08:57:09.984Z,67.60
2022-09-02T08:59:37.698Z,66.80
2022-09-02T09:02:17.817Z,65.20
2022-09-02T09:04:51.195Z,65.20
2022-09-02T09:10:19.276Z,64.30
2022-09-02T09:12:52.182Z,61.90
2022-09-02T09:15:38.118Z,61.10
2022-09-02T09:18:05.692Z,60.80
2022-09-02T09:20:33.275Z,59.40
2022-09-02T09:23:00.879Z,59.00
2022-09-02T09:25:32.007Z,59.40
2022-09-02T09:28:00.349Z,58.90
2022-09-02T09:30:27.953Z,59.00
2022-09-02T09:32:55.538Z,58.90
2022-09-02T09:35:23.112Z,58.40
2022-09-02T09:37:56.410Z,57.80
2022-09-02T09:40:24.031Z,57.00
2022-09-02T09:45:37.806Z,55.60
2022-09-02T09:48:11.200Z,55.60
2022-09-02T09:50:38.791Z,55.50
2022-09-02T09:53:27.552Z,55.10
2022-09-02T09:55:57.996Z,54.90
2022-09-02T09:58:28.496Z,55.40
2022-09-02T10:00:56.485Z,55.40
2022-09-02T10:03:24.040Z,55.30
2022-09-02T10:05:54.282Z,55.10
2022-09-02T10:08:21.893Z,53.70
2022-09-02T10:11:01.199Z,53.20
2022-09-02T10:13:32.283Z,53.00
2022-09-02T10:16:05.597Z,53.00
2022-09-02T10:18:33.142Z,52.30
2022-09-02T10:21:17.392Z,52.10
2022-09-02T10:24:08.789Z,51.90
2022-09-02T10:26:39.493Z,51.60
2022-09-02T10:29:10.375Z,50.20
2022-09-02T10:31:53.856Z,50.10
2022-09-02T10:34:39.513Z,49.90
2022-09-02T10:37:22.387Z,49.40
2022-09-02T10:40:08.116Z,48.50
2022-09-02T10:42:44.711Z,47.20
2022-09-02T10:45:25.116Z,47.30
2022-09-02T10:48:11.397Z,46.70
2022-09-02T10:50:41.452Z,46.00
2022-09-02T10:53:11.832Z,46.10
2022-09-02T10:55:57.750Z,45.80
2022-09-02T10:58:43.678Z,45.10
2022-09-02T11:01:11.367Z,44.80
2022-09-02T11:03:41.774Z,43.60
2022-09-02T11:06:14.798Z,43.20
2022-09-02T11:08:54.502Z,43.20
2022-09-02T11:11:40.361Z,43.10
2022-09-02T11:14:32.929Z,43.30
2022-09-02T11:17:05.916Z,42.60
2022-09-02T11:19:35.951Z,42.60
2022-09-02T11:22:04.293Z,41.90
2022-09-02T11:24:31.866Z,41.80
2022-09-02T11:27:02.640Z,41.90
2022-09-02T11:30:00.560Z,42.10
2022-09-02T11:32:39.792Z,41.70
2022-09-02T11:35:07.396Z,42.20
2022-09-02T11:37:47.750Z,42.60
2022-09-02T11:40:36.083Z,42.40
2022-09-02T11:43:25.542Z,42.40
2022-09-02T11:45:58.832Z,42.10
2022-09-02T11:48:27.100Z,41.40
2022-09-02T11:51:06.302Z,41.30
2022-09-02T11:53:39.578Z,41.40
2022-09-02T11:56:19.105Z,40.90
2022-09-02T11:58:47.458Z,40.70
2022-09-02T12:01:30.223Z,40.70
2022-09-02T12:06:28.133Z,41.30
2022-09-02T12:08:55.657Z,41.60
2022-09-02T12:11:41.326Z,41.70
2022-09-02T12:14:09.719Z,40.60
2022-09-02T12:16:37.356Z,40.60
2022-09-02T12:19:04.885Z,41.10
2022-09-02T12:21:32.501Z,41.20
2022-09-02T12:24:00.135Z,40.50
2022-09-02T12:26:31.507Z,40.20
2022-09-02T12:29:11.214Z,40.20
2022-09-02T12:31:48.010Z,40.40
2022-09-02T12:34:21.313Z,40.50
2022-09-02T12:36:52.549Z,40.00
2022-09-02T12:39:23.949Z,40.20
2022-09-02T12:41:55.304Z,40.00
2022-09-02T12:44:47.474Z,39.90
2022-09-02T12:47:23.998Z,40.10
2022-09-02T12:50:06.548Z,39.50
2022-09-02T12:52:52.693Z,39.20
2022-09-02T12:55:20.274Z,39.20
2022-09-02T12:57:47.837Z,39.60
2022-09-02T13:00:15.460Z,39.20
2022-09-02T13:02:45.783Z,39.00
2022-09-02T13:05:43.603Z,38.90
2022-09-02T13:08:41.630Z,39.10
2022-09-02T13:11:46.147Z,39.00
2022-09-02T13:14:28.765Z,37.50
2022-09-02T13:17:36.134Z,37.50
2022-09-02T13:20:02.818Z,37.70
2022-09-02T13:22:52.106Z,37.80
2022-09-02T13:25:29.219Z,38.10
2022-09-02T13:28:15.165Z,37.80
2022-09-02T13:31:07.249Z,38.10
2022-09-02T13:33:36.042Z,38.00
2022-09-02T13:36:02.434Z,37.60
2022-09-02T13:38:30.099Z,37.50
2022-09-02T13:40:57.638Z,37.20
2022-09-02T13:43:26.168Z,37.20
2022-09-02T13:45:52.911Z,37.30
2022-09-02T13:48:24.533Z,36.90
2022-09-02T13:50:52.014Z,36.90
2022-09-02T13:54:05.501Z,36.80
2022-09-02T13:55:58.175Z,36.70
2022-09-02T13:58:31.538Z,36.60
2022-09-02T14:01:02.271Z,36.40
2022-09-02T14:03:28.443Z,36.20
2022-09-02T14:05:55.665Z,36.20
2022-09-02T14:08:23.399Z,36.10
2022-09-02T14:10:50.883Z,36.00
2022-09-02T14:13:18.455Z,35.80
2022-09-02T14:15:46.158Z,35.60
2022-09-02T14:18:18.091Z,35.40
2022-09-02T14:21:11.801Z,34.30
2022-09-02T14:23:39.384Z,34.30
2022-09-02T14:26:06.971Z,34.80
2022-09-02T14:28:35.139Z,35.00
2022-09-02T14:31:03.606Z,35.10
2022-09-02T14:33:37.049Z,35.20
2022-09-02T14:36:08.316Z,35.00
2022-09-02T14:38:35.881Z,35.00
2022-09-02T14:41:18.546Z,35.10
2022-09-02T14:43:48.806Z,35.50
2022-09-02T14:46:25.558Z,35.40
2022-09-02T14:48:53.125Z,35.30
2022-09-02T14:51:21.456Z,35.00
2022-09-02T14:53:49.070Z,35.00
2022-09-02T14:56:16.651Z,35.50
2022-09-02T14:58:44.620Z,35.20
2022-09-02T15:01:13.291Z,34.70
2022-09-02T15:03:40.755Z,34.20
2022-09-02T15:06:13.144Z,34.90
2022-09-02T15:08:36.690Z,34.40
2022-09-02T15:11:04.276Z,34.20
2022-09-02T15:13:34.666Z,34.00
2022-09-02T15:16:03.209Z,33.60
2022-09-02T15:18:31.408Z,33.70
2022-09-02T15:20:59.745Z,34.20
2022-09-02T15:23:27.371Z,33.50
2022-09-02T15:25:55.697Z,33.80
2022-09-02T15:28:23.259Z,33.70
2022-09-02T15:30:50.910Z,33.60
2022-09-02T15:33:18.562Z,33.50
2022-09-02T15:35:46.049Z,32.50
2022-09-02T15:38:13.671Z,32.80
2022-09-02T15:40:41.253Z,32.90
2022-09-02T15:43:08.838Z,33.10
2022-09-02T15:45:39.925Z,32.50
2022-09-02T15:48:07.508Z,32.40
2022-09-02T15:50:35.093Z,32.70
2022-09-02T15:53:03.486Z,32.20
2022-09-02T15:55:34.880Z,32.30
2022-09-02T15:58:02.474Z,32.30
2022-09-02T16:00:30.166Z,32.50
2022-09-02T16:03:00.395Z,32.50
2022-09-02T16:05:27.920Z,32.50
2022-09-02T16:07:56.311Z,32.60
2022-09-02T16:10:24.652Z,32.90
2022-09-02T16:12:52.223Z,32.90
2022-09-02T16:15:19.843Z,33.20
2022-09-02T16:17:47.428Z,33.30
2022-09-02T16:20:19.158Z,33.50
2022-09-02T16:22:42.605Z,33.20
2022-09-02T16:25:10.176Z,33.00
2022-09-02T16:27:53.079Z,32.70
2022-09-02T16:30:20.627Z,33.20
2022-09-02T16:32:48.165Z,33.40
2022-09-02T16:35:15.780Z,33.80
2022-09-02T16:37:43.457Z,33.40
2022-09-02T16:40:11.848Z,33.30
2022-09-02T16:42:39.695Z,33.40
2022-09-02T16:45:09.227Z,33.60
2022-09-02T16:47:36.859Z,33.50
2022-09-02T16:50:04.480Z,33.70
2022-09-02T16:52:32.084Z,33.70
2022-09-02T16:54:59.609Z,34.00
2022-09-02T16:57:27.239Z,34.20
2022-09-02T16:59:54.804Z,34.30
2022-09-02T17:02:23.193Z,34.20
2022-09-02T17:04:50.746Z,34.20
2022-09-02T17:07:19.083Z,35.30
2022-09-02T17:09:46.658Z,34.90
2022-09-02T17:12:14.631Z,35.30
2022-09-02T17:14:42.185Z,35.80
2022-09-02T17:17:09.797Z,35.90
2022-09-02T17:19:37.373Z,36.20
2022-09-02T17:22:04.947Z,36.50
2022-09-02T17:24:32.521Z,36.90
2022-09-02T17:27:00.129Z,37.20
2022-09-02T17:31:55.264Z,37.80
2022-09-02T17:34:22.924Z,37.90
2022-09-02T17:36:50.503Z,37.90
2022-09-02T17:39:18.106Z,38.10
2022-09-02T17:41:54.724Z,38.30
2022-09-02T17:44:22.304Z,38.40
2022-09-02T17:46:49.891Z,38.20
2022-09-02T17:49:17.974Z,38.20
2022-09-02T17:51:45.133Z,39.30
2022-09-02T17:54:13.472Z,39.40
2022-09-02T17:57:09.098Z,39.30
2022-09-02T18:00:04.261Z,39.70
2022-09-02T18:02:55.417Z,40.00
2022-09-02T18:05:28.857Z,40.50
2022-09-02T18:08:03.601Z,39.90
2022-09-02T18:10:34.104Z,40.40
2022-09-02T18:13:04.585Z,40.80
2022-09-02T18:15:32.223Z,40.90
2022-09-02T18:17:59.799Z,40.80
2022-09-02T18:20:27.531Z,40.70
2022-09-02T18:23:25.333Z,40.60
2022-09-02T18:26:29.848Z,41.00
2022-09-02T18:29:06.269Z,41.40
2022-09-02T18:31:40.362Z,42.00
2022-09-02T18:34:14.343Z,42.00
2022-09-02T18:37:06.334Z,42.20
2022-09-02T18:40:11.166Z,42.50
2022-09-02T18:43:02.765Z,42.70
2022-09-02T18:45:34.209Z,43.60
2022-09-02T18:48:13.831Z,43.50
2022-09-02T18:50:57.123Z,43.30
2022-09-02T18:53:09.256Z,43.20
2022-09-02T18:55:36.842Z,43.10
2022-09-02T18:58:08.189Z,43.70
2022-09-02T19:00:35.734Z,43.60
2022-09-02T19:03:03.303Z,43.90
2022-09-02T19:05:30.915Z,44.20
2022-09-02T19:08:22.329Z,44.50
2022-09-02T19:10:49.949Z,44.70
2022-09-02T19:13:18.302Z,45.30
2022-09-02T19:15:45.885Z,45.20
2022-09-02T19:18:13.489Z,45.70
2022-09-02T19:20:41.049Z,46.30
2022-09-02T19:23:08.706Z,46.70
2022-09-02T19:25:36.341Z,47.10
2022-09-02T19:28:04.672Z,46.90
2022-09-02T19:30:32.260Z,46.90
2022-09-02T19:32:59.875Z,46.80
2022-09-02T19:35:27.458Z,47.00
2022-09-02T19:37:55.081Z,47.00
2022-09-02T19:40:28.618Z,47.40
2022-09-02T19:42:56.192Z,47.50
2022-09-02T19:45:23.827Z,47.70
2022-09-02T19:48:08.826Z,47.80
2022-09-02T19:50:20.509Z,47.90
2022-09-02T19:52:48.083Z,47.80
2022-09-02T19:55:16.546Z,48.00
2022-09-02T19:57:44.160Z,47.90
2022-09-02T20:00:11.743Z,47.90
2022-09-02T20:02:42.181Z,48.10
2022-09-02T20:05:09.743Z,49.10
2022-09-02T20:07:37.317Z,49.60
2022-09-02T20:10:04.940Z,50.00
2022-09-02T20:12:32.520Z,50.50
2022-09-02T20:15:02.830Z,50.60
2022-09-02T20:17:30.461Z,50.80
2022-09-02T20:19:58.040Z,50.90
2022-09-02T20:22:25.617Z,51.20
2022-09-02T20:24:54.500Z,51.30
2022-09-02T20:27:24.949Z,51.40
2022-09-02T20:29:52.523Z,51.50
2022-09-02T20:32:41.966Z,51.90
2022-09-02T20:35:15.062Z,51.30
2022-09-02T20:37:50.190Z,51.10
2022-09-02T20:40:33.829Z,51.40
2022-09-02T20:43:04.292Z,52.10
2022-09-02T20:45:37.388Z,52.30
2022-09-02T20:48:24.692Z,52.90
2022-09-02T20:51:01.223Z,52.90
2022-09-02T20:53:55.600Z,52.90
2022-09-02T20:56:26.600Z,53.20
2022-09-02T20:58:59.536Z,53.10
2022-09-02T21:01:32.777Z,52.80
2022-09-02T21:04:04.348Z,52.40
2022-09-02T21:06:35.878Z,52.70
2022-09-02T21:09:20.258Z,52.30
2022-09-02T21:11:50.540Z,52.30
2022-09-02T21:14:18.124Z,52.30
2022-09-02T21:16:55.033Z,52.80
2022-09-02T21:19:34.963Z,52.70
2022-09-02T21:22:20.606Z,52.80
2022-09-02T21:24:59.773Z,52.60
2022-09-02T21:27:27.391Z,52.60
2022-09-02T21:30:07.145Z,51.90
2022-09-02T21:32:37.566Z,51.70
2022-09-02T21:35:20.282Z,51.50
2022-09-02T21:37:47.910Z,51.00
2022-09-02T21:40:18.192Z,50.70
2022-09-02T21:43:04.947Z,50.70
2022-09-02T21:45:35.346Z,50.70
2022-09-02T21:48:27.476Z,50.90
2022-09-02T21:50:55.051Z,51.50
2022-09-02T21:53:22.624Z,52.00
2022-09-02T21:56:08.296Z,52.30
2022-09-02T21:59:09.465Z,52.70
2022-09-02T22:01:46.367Z,53.20
2022-09-02T22:04:43.995Z,53.70
2022-09-02T22:07:21.209Z,54.10
2022-09-02T22:09:51.264Z,54.30
2022-09-02T22:12:19.607Z,55.40
2022-09-02T22:14:59.033Z,55.40
2022-09-02T22:17:35.193Z,55.80
2022-09-02T22:20:02.783Z,56.00
2022-09-02T22:22:30.419Z,55.70
2022-09-02T22:24:58.020Z,54.70
2022-09-02T22:27:32.489Z,54.30
2022-09-02T22:30:06.367Z,54.20
2022-09-02T22:32:36.848Z,53.80
2022-09-02T22:35:19.172Z,53.80
2022-09-02T22:37:50.039Z,54.70
2022-09-02T22:40:18.342Z,54.70
2022-09-02T22:42:46.241Z,54.60
2022-09-02T22:45:37.840Z,54.40
2022-09-02T22:48:29.993Z,54.40
2022-09-02T22:51:18.961Z,54.40
2022-09-02T22:53:43.964Z,54.70
2022-09-02T22:56:13.565Z,55.50
2022-09-02T22:58:51.872Z,55.50
2022-09-02T23:01:25.545Z,56.20
2022-09-02T23:03:53.084Z,56.90
2022-09-02T23:06:26.623Z,56.80
2022-09-02T23:08:56.846Z,57.30
2022-09-02T23:11:27.551Z,57.90
2022-09-02T23:14:17.309Z,58.00
2022-09-02T23:17:22.053Z,57.80
2022-09-02T23:19:55.681Z,57.50
2022-09-02T23:22:34.993Z,57.50
2022-09-02T23:25:14.482Z,57.60
2022-09-02T23:27:48.427Z,59.20
2022-09-02T23:30:15.999Z,59.20
2022-09-02T23:33:21.624Z,60.30
2022-09-02T23:36:13.183Z,61.50
2022-09-02T23:38:55.906Z,62.70
2022-09-02T23:41:23.480Z,63.10
2022-09-02T23:43:51.054Z,62.70
2022-09-02T23:46:55.985Z,63.70
2022-09-02T23:49:38.180Z,63.60
2022-09-02T23:52:27.939Z,63.50
2022-09-02T23:55:07.603Z,64.20
2022-09-02T23:57:43.894Z,63.70
